Dades meteomassalio
Diari Summary for Febrer 17, 2017 Units:  Metric    English   Both
« Previous Day
Next Day »
Diari Semanal Mensual Anual Personalitzat
  Maxima: Minima: Mijana:
Temperatura: 14.9 °C 1.4 °C 7.4 °C
Rosada: 10.3 °C 0.6 °C 5.2 °C
Humitat: 94 % 65 % 87 %
Velocitat del vent: 14.8 km/h 0.0 km/h 2.2 km/h
Racha vent: 14.8 km/h - -
Vent:- - SE
Pressio: 1032.1 hPa 1026.0 hPa -
Pluja: 0.3 mm    
Historical Graphs
 
 
Tabular Data for Febrer 17, 2017
Time Temperature Dew Point Pressure Wind Wind Speed Wind Gust Humidity Rainfall Rate (Hourly) solar Conditions
00:04 5.8 °C 4.6 °C 1032.1 hPa Calm     92 % 0.0 mm 0.0 W/m2 CLR
00:09 5.7 °C 4.5 °C 1031.7 hPa Calm     92 % 0.0 mm 0.0 W/m2 CLR
00:14 5.7 °C 4.4 °C 1032.1 hPa Calm     92 % 0.0 mm 0.0 W/m2 CLR
00:19 5.6 °C 4.4 °C 1032.1 hPa Calm     92 % 0.0 mm 0.0 W/m2 CLR
00:24 5.6 °C 4.4 °C 1032.1 hPa Calm     92 % 0.0 mm 0.0 W/m2 CLR
00:29 5.4 °C 4.2 °C 1032.1 hPa Calm     92 % 0.0 mm 0.0 W/m2 CLR
00:34 5.4 °C 4.2 °C 1032.1 hPa Calm     92 % 0.0 mm 0.0 W/m2 CLR
00:39 5.2 °C 4.1 °C 1032.1 hPa Calm     92 % 0.0 mm 0.0 W/m2 CLR
00:44 5.2 °C 4.0 °C 1032.1 hPa Calm     92 % 0.0 mm 0.0 W/m2 CLR
00:49 5.2 °C 4.1 °C 1032.1 hPa Calm     93 % 0.0 mm 0.0 W/m2 CLR
00:54 5.2 °C 4.2 °C 1032.1 hPa Calm     93 % 0.0 mm 0.0 W/m2 CLR
00:59 5.3 °C 4.2 °C 1031.7 hPa Calm     93 % 0.0 mm 0.0 W/m2 CLR
01:04 5.2 °C 4.0 °C 1031.7 hPa Calm     92 % 0.0 mm 0.0 W/m2 CLR
01:09 5.1 °C 3.9 °C 1031.7 hPa Calm     92 % 0.0 mm 0.0 W/m2 CLR
01:14 4.9 °C 3.8 °C 1031.7 hPa Calm     92 % 0.0 mm 0.0 W/m2 CLR
01:19 4.8 °C 3.7 °C 1031.7 hPa Calm     92 % 0.0 mm 0.0 W/m2 CLR
01:24 4.7 °C 3.5 °C 1031.7 hPa Calm     92 % 0.0 mm 0.0 W/m2 CLR
01:29 4.6 °C 3.4 °C 1031.7 hPa Calm     92 % 0.0 mm 0.0 W/m2 CLR
01:34 4.6 °C 3.5 °C 1031.7 hPa Calm     93 % 0.0 mm 0.0 W/m2 CLR
01:39 4.7 °C 3.6 °C 1031.7 hPa Calm     93 % 0.0 mm 0.0 W/m2 CLR
01:44 4.7 °C 3.7 °C 1031.7 hPa Calm     93 % 0.0 mm 0.0 W/m2 CLR
01:49 4.6 °C 3.5 °C 1031.7 hPa Calm     93 % 0.0 mm 0.0 W/m2 CLR
01:54 4.3 °C 3.3 °C 1031.7 hPa Calm     93 % 0.0 mm 0.0 W/m2 CLR
01:59 4.2 °C 3.2 °C 1031.7 hPa Calm     93 % 0.0 mm 0.0 W/m2 CLR
02:04 4.2 °C 3.2 °C 1031.7 hPa Calm     93 % 0.0 mm 0.0 W/m2 CLR
02:09 4.2 °C 3.2 °C 1031.4 hPa Calm     93 % 0.0 mm 0.0 W/m2 CLR
02:14 4.3 °C 3.2 °C 1031.4 hPa Calm     93 % 0.0 mm 0.0 W/m2 CLR
02:19 4.1 °C 3.1 °C 1031.4 hPa Calm     93 % 0.0 mm 0.0 W/m2 CLR
02:24 3.9 °C 2.8 °C 1031.4 hPa Calm     93 % 0.0 mm 0.0 W/m2 CLR
02:29 3.8 °C 2.8 °C 1031.4 hPa Calm     93 % 0.0 mm 0.0 W/m2 CLR
02:34 3.8 °C 2.8 °C 1031.4 hPa Calm     93 % 0.0 mm 0.0 W/m2 CLR
02:39 3.9 °C 2.9 °C 1031.4 hPa Calm     93 % 0.0 mm 0.0 W/m2 CLR
02:44 4.1 °C 3.0 °C 1031.4 hPa Calm     93 % 0.0 mm 0.0 W/m2 CLR
02:49 4.1 °C 3.0 °C 1031.4 hPa Calm     93 % 0.0 mm 0.0 W/m2 CLR
02:54 3.9 °C 2.9 °C 1031.4 hPa Calm     93 % 0.0 mm 0.0 W/m2 CLR
02:59 3.8 °C 2.7 °C 1031.4 hPa Calm     93 % 0.0 mm 0.0 W/m2 CLR
03:04 3.6 °C 2.6 °C 1031.4 hPa Calm     93 % 0.0 mm 0.0 W/m2 CLR
03:09 3.5 °C 2.5 °C 1031.0 hPa Calm     93 % 0.0 mm 0.0 W/m2 CLR
03:14 3.5 °C 2.5 °C 1031.0 hPa Calm     93 % 0.0 mm 0.0 W/m2 CLR
03:19 3.4 °C 2.4 °C 1031.0 hPa Calm     93 % 0.0 mm 0.0 W/m2 CLR
03:24 3.5 °C 2.5 °C 1031.0 hPa Calm     93 % 0.0 mm 0.0 W/m2 CLR
03:29 3.4 °C 2.4 °C 1031.0 hPa Calm     93 % 0.3 mm 0.0 W/m2 RA
03:34 3.3 °C 2.3 °C 1031.0 hPa Calm     93 % 0.3 mm 0.0 W/m2 CLR
03:39 3.3 °C 2.3 °C 1031.0 hPa Calm     93 % 0.3 mm 0.0 W/m2 CLR
03:44 3.2 °C 2.2 °C 1031.0 hPa Calm     93 % 0.3 mm 0.0 W/m2 CLR
03:49 3.1 °C 2.1 °C 1031.0 hPa Calm     93 % 0.3 mm 0.0 W/m2 CLR
03:54 3.1 °C 2.1 °C 1031.0 hPa Calm     93 % 0.3 mm 0.0 W/m2 CLR
03:59 3.1 °C 2.1 °C 1031.0 hPa Calm     93 % 0.3 mm 0.0 W/m2 CLR
04:04 3.2 °C 2.2 °C 1030.7 hPa Calm     93 % 0.3 mm 0.0 W/m2 CLR
04:09 3.3 °C 2.3 °C 1030.7 hPa Calm     93 % 0.3 mm 0.0 W/m2 CLR
04:14 3.3 °C 2.3 °C 1030.7 hPa Calm     93 % 0.3 mm 0.0 W/m2 CLR
04:19 3.3 °C 2.3 °C 1030.7 hPa Calm     93 % 0.3 mm 0.0 W/m2 CLR
04:24 3.3 °C 2.4 °C 1030.7 hPa Calm     94 % 0.3 mm 0.0 W/m2 CLR
04:29 3.3 °C 2.3 °C 1030.7 hPa Calm     93 % 0.0 mm 0.0 W/m2 CLR
04:34 3.2 °C 2.2 °C 1030.7 hPa Calm     93 % 0.0 mm 0.0 W/m2 CLR
04:39 2.9 °C 1.9 °C 1030.7 hPa Calm     93 % 0.0 mm 0.0 W/m2 CLR
04:44 2.7 °C 1.7 °C 1030.7 hPa Calm     93 % 0.0 mm 0.0 W/m2 CLR
04:49 2.6 °C 1.6 °C 1030.7 hPa Calm     93 % 0.0 mm 0.0 W/m2 CLR
04:54 2.6 °C 1.6 °C 1030.4 hPa Calm     93 % 0.0 mm 0.0 W/m2 CLR
04:59 2.5 °C 1.5 °C 1030.4 hPa Calm     93 % 0.0 mm 0.0 W/m2 CLR
05:04 2.4 °C 1.4 °C 1030.4 hPa Calm     93 % 0.0 mm 0.0 W/m2 CLR
05:09 2.6 °C 1.6 °C 1030.4 hPa Calm     93 % 0.0 mm 0.0 W/m2 CLR
05:14 2.5 °C 1.6 °C 1030.4 hPa Calm     94 % 0.0 mm 0.0 W/m2 CLR
05:19 2.5 °C 1.5 °C 1030.4 hPa Calm     93 % 0.0 mm 0.0 W/m2 CLR
05:24 2.4 °C 1.4 °C 1030.4 hPa Calm     93 % 0.0 mm 0.0 W/m2 CLR
05:29 2.3 °C 1.3 °C 1030.4 hPa Calm     93 % 0.0 mm 0.0 W/m2 CLR
05:34 2.3 °C 1.4 °C 1030.4 hPa Calm     94 % 0.0 mm 0.0 W/m2 CLR
05:39 2.3 °C 1.4 °C 1030.4 hPa Calm     94 % 0.0 mm 0.0 W/m2 CLR
05:44 2.3 °C 1.4 °C 1030.4 hPa Calm     94 % 0.0 mm 0.0 W/m2 CLR
05:49 2.3 °C 1.4 °C 1030.4 hPa Calm     94 % 0.0 mm 0.0 W/m2 CLR
05:54 2.3 °C 1.4 °C 1030.0 hPa Calm     94 % 0.0 mm 0.0 W/m2 CLR
05:59 2.2 °C 1.2 °C 1030.4 hPa Calm     93 % 0.0 mm 0.0 W/m2 CLR
06:04 2.3 °C 1.3 °C 1030.0 hPa Calm     93 % 0.0 mm 0.0 W/m2 CLR
06:09 2.3 °C 1.4 °C 1030.0 hPa Calm     94 % 0.0 mm 0.0 W/m2 CLR
06:15 2.3 °C 1.4 °C 1030.4 hPa Calm     94 % 0.0 mm 0.0 W/m2 CLR
06:20 2.3 °C 1.4 °C 1030.0 hPa Calm     94 % 0.0 mm 0.0 W/m2 CLR
06:25 2.5 °C 1.6 °C 1030.0 hPa Calm     94 % 0.0 mm 0.0 W/m2 CLR
06:30 2.3 °C 1.4 °C 1030.0 hPa Calm     94 % 0.0 mm 0.0 W/m2 CLR
06:35 2.1 °C 1.1 °C 1030.0 hPa Calm     93 % 0.0 mm 0.0 W/m2 CLR
06:40 1.9 °C 0.9 °C 1030.0 hPa Calm     93 % 0.0 mm 0.0 W/m2 CLR
06:45 1.9 °C 1.0 °C 1030.0 hPa Calm     94 % 0.0 mm 0.0 W/m2 CLR
06:50 1.8 °C 0.8 °C 1030.0 hPa Calm     93 % 0.0 mm 0.0 W/m2 CLR
06:55 1.9 °C 1.0 °C 1030.0 hPa Calm     94 % 0.0 mm 0.0 W/m2 CLR
07:00 1.8 °C 0.9 °C 1030.0 hPa Calm     94 % 0.0 mm 0.0 W/m2 CLR
07:05 1.7 °C 0.7 °C 1030.0 hPa Calm     93 % 0.0 mm 0.0 W/m2 CLR
07:10 1.6 °C 0.7 °C 1030.0 hPa Calm     94 % 0.0 mm 0.0 W/m2 CLR
07:15 1.6 °C 0.7 °C 1030.4 hPa Calm     94 % 0.0 mm 0.0 W/m2 CLR
07:20 1.6 °C 0.7 °C 1030.4 hPa Calm     94 % 0.0 mm 0.0 W/m2 CLR
07:25 1.6 °C 0.7 °C 1030.4 hPa Calm     94 % 0.0 mm 0.0 W/m2 CLR
07:30 1.5 °C 0.7 °C 1030.4 hPa Calm     94 % 0.0 mm 0.0 W/m2 CLR
07:35 1.5 °C 0.7 °C 1030.4 hPa Calm     94 % 0.0 mm 0.0 W/m2 CLR
07:40 1.5 °C 0.7 °C 1030.4 hPa Calm     94 % 0.0 mm 0.0 W/m2 CLR
07:45 1.4 °C 0.6 °C 1030.4 hPa Calm     94 % 0.0 mm 0.0 W/m2 OVC
07:50 1.4 °C 0.6 °C 1030.4 hPa Calm     94 % 0.0 mm 0.0 W/m2 OVC
07:55 1.6 °C 0.7 °C 1030.4 hPa Calm     94 % 0.0 mm 7.0 W/m2 OVC
08:00 1.4 °C 0.6 °C 1030.7 hPa Calm     94 % 0.0 mm 11.0 W/m2 BKN
08:05 1.4 °C 0.6 °C 1030.7 hPa Calm     94 % 0.0 mm 12.0 W/m2 BKN
08:10 1.5 °C 0.7 °C 1030.7 hPa Calm     94 % 0.0 mm 18.0 W/m2 BKN
08:15 1.5 °C 0.7 °C 1030.7 hPa Calm     94 % 0.0 mm 23.0 W/m2 BKN
08:20 1.6 °C 0.7 °C 1030.7 hPa Calm     94 % 0.0 mm 28.0 W/m2 BKN
08:25 1.6 °C 0.7 °C 1030.7 hPa Calm     94 % 0.0 mm 35.0 W/m2 BKN
08:30 1.8 °C 0.9 °C 1030.7 hPa Calm     94 % 0.0 mm 44.0 W/m2 BKN
08:35 1.8 °C 0.9 °C 1030.7 hPa Calm     94 % 0.0 mm 51.0 W/m2 SCT
08:40 2.1 °C 1.2 °C 1031.0 hPa Calm     94 % 0.0 mm 65.0 W/m2 SCT
08:45 2.2 °C 1.3 °C 1031.0 hPa Calm     94 % 0.0 mm 74.0 W/m2 FEW
08:50 2.3 °C 1.4 °C 1031.0 hPa Calm     94 % 0.0 mm 67.0 W/m2 FEW
08:55 2.5 °C 1.6 °C 1031.0 hPa Calm     94 % 0.0 mm 104.0 W/m2 FEW
09:00 2.7 °C 1.8 °C 1031.0 hPa Calm     94 % 0.0 mm 116.0 W/m2 CLR
09:05 2.9 °C 2.0 °C 1031.0 hPa Calm     94 % 0.0 mm 135.0 W/m2 CLR
09:10 3.2 °C 2.3 °C 1030.7 hPa Calm     94 % 0.0 mm 151.0 W/m2 CLR
09:15 3.5 °C 2.6 °C 1030.7 hPa Calm     94 % 0.0 mm 114.0 W/m2 CLR
09:20 3.9 °C 3.0 °C 1030.7 hPa Calm     94 % 0.0 mm 188.0 W/m2 CLR
09:25 4.2 °C 3.3 °C 1030.7 hPa Calm     94 % 0.0 mm 199.0 W/m2 CLR
09:30 4.4 °C 3.5 °C 1030.7 hPa Calm     94 % 0.0 mm 216.0 W/m2 CLR
09:35 4.8 °C 3.9 °C 1030.7 hPa Calm     94 % 0.0 mm 232.0 W/m2 CLR
09:40 5.2 °C 4.3 °C 1030.7 hPa Calm     94 % 0.0 mm 246.0 W/m2 CLR
09:45 5.7 °C 4.8 °C 1030.7 hPa Calm     94 % 0.0 mm 255.0 W/m2 CLR
09:50 5.9 °C 5.0 °C 1030.7 hPa Calm     94 % 0.0 mm 265.0 W/m2 CLR
09:55 6.3 °C 5.4 °C 1030.7 hPa Calm     94 % 0.0 mm 279.0 W/m2 CLR
10:00 6.6 °C 5.6 °C 1030.7 hPa Calm     93 % 0.0 mm 297.0 W/m2 CLR
10:05 6.9 °C 5.8 °C 1030.7 hPa Calm     93 % 0.0 mm 306.0 W/m2 CLR
10:10 7.1 °C 5.9 °C 1030.7 hPa Calm     92 % 0.0 mm 322.0 W/m2 CLR
10:15 7.4 °C 6.2 °C 1030.7 hPa Calm     92 % 0.0 mm 327.0 W/m2 CLR
10:20 7.8 °C 6.6 °C 1030.7 hPa Calm     92 % 0.0 mm 338.0 W/m2 CLR
10:25 8.1 °C 6.7 °C 1030.7 hPa Calm     91 % 0.0 mm 348.0 W/m2 CLR
10:30 8.4 °C 6.9 °C 1030.7 hPa Calm     90 % 0.0 mm 360.0 W/m2 CLR
10:35 8.7 °C 7.0 °C 1030.7 hPa Calm     89 % 0.0 mm 378.0 W/m2 CLR
10:40 9.0 °C 7.1 °C 1030.7 hPa Calm     88 % 0.0 mm 394.0 W/m2 CLR
10:45 9.3 °C 7.2 °C 1030.7 hPa Calm     87 % 0.0 mm 408.0 W/m2 CLR
10:50 9.8 °C 7.7 °C 1030.4 hPa Calm     87 % 0.0 mm 417.0 W/m2 CLR
10:55 10.2 °C 8.0 °C 1030.4 hPa Calm     86 % 0.0 mm 413.0 W/m2 CLR
11:00 10.5 °C 8.1 °C 1030.4 hPa NW 9.3 km/h 9.3 km/h 85 % 0.0 mm 432.0 W/m2 CLR
11:05 10.7 °C 8.1 °C 1030.4 hPa NNW 9.3 km/h 9.3 km/h 84 % 0.0 mm 438.0 W/m2 CLR
11:10 10.7 °C 8.1 °C 1030.4 hPa NW 9.7 km/h 9.7 km/h 84 % 0.0 mm 455.0 W/m2 CLR
11:15 10.7 °C 8.1 °C 1030.4 hPa NNW 8.0 km/h 8.0 km/h 84 % 0.0 mm 462.0 W/m2 CLR
11:20 10.7 °C 8.1 °C 1030.4 hPa NW 7.4 km/h 7.4 km/h 84 % 0.0 mm 473.0 W/m2 CLR
11:25 10.9 °C 8.3 °C 1030.0 hPa NW 8.0 km/h 8.0 km/h 84 % 0.0 mm 480.0 W/m2 CLR
11:30 11.1 °C 8.4 °C 1030.0 hPa NW 9.3 km/h 9.3 km/h 84 % 0.0 mm 492.0 W/m2 CLR
11:35 11.2 °C 8.7 °C 1030.0 hPa NW 8.0 km/h 8.0 km/h 85 % 0.0 mm 499.0 W/m2 CLR
11:40 11.3 °C 8.9 °C 1030.0 hPa NW 8.0 km/h 8.0 km/h 85 % 0.0 mm 515.0 W/m2 CLR
11:45 11.4 °C 8.8 °C 1030.0 hPa North 7.4 km/h 7.4 km/h 84 % 0.0 mm 517.0 W/m2 CLR
11:50 11.6 °C 8.8 °C 1030.0 hPa NNW 6.4 km/h 6.4 km/h 83 % 0.0 mm 508.0 W/m2 CLR
11:55 11.7 °C 8.9 °C 1030.0 hPa North 5.6 km/h 5.6 km/h 83 % 0.0 mm 527.0 W/m2 CLR
12:00 11.9 °C 9.1 °C 1030.0 hPa NNW 8.0 km/h 8.0 km/h 83 % 0.0 mm 534.0 W/m2 CLR
12:05 11.9 °C 8.7 °C 1029.7 hPa Calm     81 % 0.0 mm 536.0 W/m2 CLR
12:10 12.1 °C 9.1 °C 1029.7 hPa NW 5.6 km/h 5.6 km/h 82 % 0.0 mm 543.0 W/m2 CLR
12:15 12.3 °C 9.2 °C 1029.7 hPa NNW 9.3 km/h 9.3 km/h 81 % 0.0 mm 552.0 W/m2 CLR
12:20 12.4 °C 9.1 °C 1029.7 hPa NNE 9.3 km/h 9.3 km/h 80 % 0.0 mm 559.0 W/m2 CLR
12:25 12.5 °C 9.2 °C 1029.7 hPa NE 5.6 km/h 5.6 km/h 80 % 0.0 mm 559.0 W/m2 CLR
12:30 12.6 °C 9.2 °C 1029.7 hPa NNE 9.3 km/h 9.3 km/h 80 % 0.0 mm 559.0 W/m2 CLR
12:35 12.7 °C 9.6 °C 1029.7 hPa NE 13.0 km/h 13.0 km/h 81 % 0.0 mm 575.0 W/m2 CLR
12:40 12.7 °C 9.6 °C 1029.7 hPa NNE 11.1 km/h 11.1 km/h 81 % 0.0 mm 580.0 W/m2 CLR
12:45 12.6 °C 9.4 °C 1029.3 hPa NNE 9.3 km/h 9.3 km/h 81 % 0.0 mm 589.0 W/m2 CLR
12:50 12.6 °C 9.6 °C 1029.3 hPa North 7.4 km/h 7.4 km/h 82 % 0.0 mm 591.0 W/m2 CLR
12:55 12.5 °C 9.7 °C 1029.3 hPa North 9.3 km/h 9.3 km/h 83 % 0.0 mm 584.0 W/m2 CLR
13:00 12.6 °C 9.6 °C 1029.0 hPa NNE 6.4 km/h 6.4 km/h 82 % 0.0 mm 592.0 W/m2 CLR
13:05 12.6 °C 9.6 °C 1029.0 hPa ENE 5.6 km/h 5.6 km/h 82 % 0.0 mm 592.0 W/m2 CLR
13:10 12.8 °C 9.8 °C 1029.0 hPa NE 9.7 km/h 9.7 km/h 82 % 0.0 mm 594.0 W/m2 CLR
13:15 12.7 °C 9.6 °C 1029.0 hPa NE 9.3 km/h 9.3 km/h 81 % 0.0 mm 599.0 W/m2 CLR
13:20 12.6 °C 9.6 °C 1029.0 hPa ENE 11.1 km/h 11.1 km/h 82 % 0.0 mm 601.0 W/m2 CLR
13:25 12.6 °C 9.6 °C 1028.7 hPa ENE 7.4 km/h 7.4 km/h 82 % 0.0 mm 598.0 W/m2 CLR
13:30 12.6 °C 9.6 °C 1028.7 hPa ENE 11.1 km/h 11.1 km/h 82 % 0.0 mm 596.0 W/m2 CLR
13:35 12.6 °C 9.4 °C 1028.7 hPa NE 14.8 km/h 14.8 km/h 81 % 0.0 mm 599.0 W/m2 CLR
13:40 12.6 °C 9.6 °C 1028.7 hPa NE 11.1 km/h 11.1 km/h 82 % 0.0 mm 596.0 W/m2 CLR
13:45 12.7 °C 9.9 °C 1028.3 hPa NE 6.4 km/h 6.4 km/h 83 % 0.0 mm 601.0 W/m2 CLR
13:50 12.8 °C 9.8 °C 1028.7 hPa ENE 13.0 km/h 13.0 km/h 82 % 0.0 mm 598.0 W/m2 CLR
13:55 12.7 °C 9.7 °C 1028.3 hPa NE 11.1 km/h 11.1 km/h 82 % 0.0 mm 589.0 W/m2 CLR
14:00 12.7 °C 9.7 °C 1028.3 hPa NE 11.1 km/h 11.1 km/h 82 % 0.0 mm 587.0 W/m2 CLR
14:05 12.8 °C 9.8 °C 1028.3 hPa ENE 5.6 km/h 5.6 km/h 82 % 0.0 mm 582.0 W/m2 CLR
14:10 12.9 °C 9.8 °C 1028.3 hPa NNE 5.6 km/h 5.6 km/h 81 % 0.0 mm 578.0 W/m2 CLR
14:15 13.0 °C 9.8 °C 1028.0 hPa ENE 11.3 km/h 11.3 km/h 81 % 0.0 mm 573.0 W/m2 CLR
14:20 13.0 °C 9.8 °C 1028.0 hPa NE 11.1 km/h 11.1 km/h 81 % 0.0 mm 570.0 W/m2 CLR
14:25 12.9 °C 9.8 °C 1028.0 hPa NE 13.0 km/h 13.0 km/h 81 % 0.0 mm 568.0 W/m2 CLR
14:30 13.1 °C 9.9 °C 1028.0 hPa NE 11.3 km/h 11.3 km/h 81 % 0.0 mm 561.0 W/m2 CLR
14:35 13.2 °C 9.8 °C 1027.7 hPa ENE 11.3 km/h 11.3 km/h 80 % 0.0 mm 548.0 W/m2 CLR
14:40 13.2 °C 9.8 °C 1027.7 hPa NE 11.1 km/h 11.1 km/h 80 % 0.0 mm 548.0 W/m2 CLR
14:45 13.3 °C 9.9 °C 1027.7 hPa ENE 5.6 km/h 5.6 km/h 80 % 0.0 mm 538.0 W/m2 CLR
14:50 13.4 °C 10.0 °C 1027.7 hPa ENE 4.8 km/h 4.8 km/h 80 % 0.0 mm 534.0 W/m2 CLR
14:55 13.7 °C 10.3 °C 1027.3 hPa ENE 7.4 km/h 7.4 km/h 80 % 0.0 mm 526.0 W/m2 CLR
15:00 13.8 °C 10.1 °C 1027.3 hPa NE 8.0 km/h 8.0 km/h 78 % 0.0 mm 515.0 W/m2 CLR
15:05 13.8 °C 10.1 °C 1027.3 hPa ENE 11.1 km/h 11.1 km/h 78 % 0.0 mm 510.0 W/m2 CLR
15:10 13.8 °C 10.0 °C 1027.3 hPa NE 7.4 km/h 7.4 km/h 78 % 0.0 mm 506.0 W/m2 CLR
15:15 13.8 °C 10.1 °C 1027.3 hPa NE 11.1 km/h 11.1 km/h 78 % 0.0 mm 494.0 W/m2 CLR
15:20 13.8 °C 9.9 °C 1027.3 hPa NE 7.4 km/h 7.4 km/h 77 % 0.0 mm 466.0 W/m2 CLR
15:25 13.9 °C 9.9 °C 1027.0 hPa ENE 9.3 km/h 9.3 km/h 77 % 0.0 mm 462.0 W/m2 CLR
15:30 13.8 °C 9.7 °C 1027.0 hPa East 9.3 km/h 9.3 km/h 76 % 0.0 mm 457.0 W/m2 CLR
15:35 13.8 °C 9.7 °C 1027.0 hPa ENE 13.0 km/h 13.0 km/h 76 % 0.0 mm 448.0 W/m2 CLR
15:41 13.8 °C 9.8 °C 1027.0 hPa NE 6.4 km/h 6.4 km/h 77 % 0.0 mm 427.0 W/m2 CLR
15:46 13.9 °C 10.0 °C 1027.0 hPa NE 7.4 km/h   77 % 0.0 mm 418.0 W/m2 CLR
15:51 14.2 °C 10.0 °C 1027.0 hPa ENE 8.0 km/h 8.0 km/h 76 % 0.0 mm 418.0 W/m2 CLR
15:56 14.3 °C 9.9 °C 1026.6 hPa NE 3.7 km/h 3.7 km/h 75 % 0.0 mm 404.0 W/m2 CLR
16:01 14.3 °C 9.7 °C 1026.6 hPa East 8.0 km/h 8.0 km/h 74 % 0.0 mm 388.0 W/m2 CLR
16:06 14.2 °C 9.6 °C 1026.6 hPa NE 7.4 km/h 7.4 km/h 74 % 0.0 mm 332.0 W/m2 CLR
16:11 14.3 °C 9.7 °C 1026.6 hPa ENE 4.8 km/h 4.8 km/h 74 % 0.0 mm 355.0 W/m2 CLR
16:16 14.3 °C 9.3 °C 1026.6 hPa ENE 5.6 km/h 5.6 km/h 72 % 0.0 mm 346.0 W/m2 CLR
16:21 14.3 °C 9.3 °C 1026.3 hPa ENE 5.6 km/h   72 % 0.0 mm 306.0 W/m2 CLR
16:26 14.4 °C 9.4 °C 1026.3 hPa NE 1.9 km/h 1.9 km/h 72 % 0.0 mm 320.0 W/m2 CLR
16:31 14.5 °C 9.5 °C 1026.3 hPa Calm     72 % 0.0 mm 302.0 W/m2 CLR
16:36 14.7 °C 8.7 °C 1026.3 hPa NNE 3.7 km/h 3.7 km/h 67 % 0.0 mm 294.0 W/m2 CLR
16:41 14.9 °C 8.8 °C 1026.3 hPa NE 1.6 km/h 2.3 km/h 67 % 0.0 mm 283.0 W/m2 CLR
16:46 14.9 °C 9.1 °C 1026.3 hPa NE 6.4 km/h 6.4 km/h 68 % 0.0 mm 267.0 W/m2 CLR
16:51 14.7 °C 9.3 °C 1026.3 hPa Calm     70 % 0.0 mm 253.0 W/m2 CLR
16:56 14.8 °C 8.9 °C 1026.3 hPa Calm     68 % 0.0 mm 234.0 W/m2 CLR
17:01 14.9 °C 8.4 °C 1026.3 hPa Calm     65 % 0.0 mm 223.0 W/m2 CLR
17:06 14.9 °C 8.4 °C 1026.3 hPa North 11.1 km/h 11.1 km/h 65 % 0.0 mm 202.0 W/m2 CLR
17:11 14.8 °C 8.6 °C 1026.3 hPa North 1.9 km/h 1.9 km/h 66 % 0.0 mm 190.0 W/m2 CLR
17:16 14.7 °C 8.2 °C 1026.3 hPa NNW 7.4 km/h 7.4 km/h 65 % 0.0 mm 171.0 W/m2 CLR
17:21 14.6 °C 8.1 °C 1026.3 hPa North 6.4 km/h 6.4 km/h 65 % 0.0 mm 155.0 W/m2 CLR
17:26 14.4 °C 8.1 °C 1026.0 hPa North 5.6 km/h 5.6 km/h 66 % 0.0 mm 139.0 W/m2 CLR
17:31 14.3 °C 8.0 °C 1026.0 hPa North 7.4 km/h 7.4 km/h 66 % 0.0 mm 123.0 W/m2 CLR
17:36 14.2 °C 7.9 °C 1026.0 hPa North 3.2 km/h 3.2 km/h 66 % 0.0 mm 107.0 W/m2 CLR
17:41 14.1 °C 7.8 °C 1026.0 hPa North 5.6 km/h 5.6 km/h 66 % 0.0 mm 93.0 W/m2 CLR
17:46 14.0 °C 7.9 °C 1026.0 hPa North 1.9 km/h   67 % 0.0 mm 81.0 W/m2 FEW
17:51 13.9 °C 7.8 °C 1026.0 hPa Calm     67 % 0.0 mm 58.0 W/m2 SCT
17:56 13.8 °C 7.9 °C 1026.0 hPa Calm     68 % 0.0 mm 53.0 W/m2 SCT
18:01 13.7 °C 8.1 °C 1026.0 hPa North 5.6 km/h 5.6 km/h 69 % 0.0 mm 40.0 W/m2 BKN
18:06 13.5 °C 8.3 °C 1026.0 hPa Calm     71 % 0.0 mm 32.0 W/m2 BKN
18:11 13.3 °C 8.3 °C 1026.0 hPa Calm     72 % 0.0 mm 23.0 W/m2 BKN
18:16 13.1 °C 8.2 °C 1026.0 hPa Calm     72 % 0.0 mm 16.0 W/m2 BKN
18:21 12.9 °C 8.2 °C 1026.0 hPa Calm     73 % 0.0 mm 12.0 W/m2 BKN
18:26 12.6 °C 8.1 °C 1026.0 hPa Calm     74 % 0.0 mm 11.0 W/m2 BKN
18:31 12.3 °C 8.0 °C 1026.0 hPa Calm     75 % 0.0 mm 7.0 W/m2 BKN
18:36 12.2 °C 8.1 °C 1026.0 hPa Calm     76 % 0.0 mm 5.0 W/m2 OVC
18:41 12.0 °C 7.9 °C 1026.0 hPa Calm     76 % 0.0 mm 0.0 W/m2 OVC
18:46 11.9 °C 8.0 °C 1026.0 hPa Calm     77 % 0.0 mm 0.0 W/m2 OVC
18:51 11.8 °C 7.9 °C 1026.0 hPa Calm     77 % 0.0 mm 0.0 W/m2 CLR
18:56 11.6 °C 7.7 °C 1026.0 hPa Calm     77 % 0.0 mm 0.0 W/m2 CLR
19:01 11.3 °C 7.6 °C 1026.0 hPa Calm     78 % 0.0 mm 0.0 W/m2 CLR
19:06 11.1 °C 7.6 °C 1026.3 hPa Calm     79 % 0.0 mm 0.0 W/m2 CLR
19:11 10.8 °C 7.4 °C 1026.0 hPa Calm     80 % 0.0 mm 0.0 W/m2 CLR
19:16 10.4 °C 7.2 °C 1026.3 hPa Calm     80 % 0.0 mm 0.0 W/m2 CLR
19:21 10.0 °C 6.9 °C 1026.3 hPa Calm     81 % 0.0 mm 0.0 W/m2 CLR
19:26 9.7 °C 7.0 °C 1026.3 hPa Calm     83 % 0.0 mm 0.0 W/m2 CLR
19:31 9.5 °C 6.8 °C 1026.3 hPa Calm     83 % 0.0 mm 0.0 W/m2 CLR
19:36 9.2 °C 6.7 °C 1026.3 hPa Calm     84 % 0.0 mm 0.0 W/m2 CLR
19:41 9.0 °C 6.4 °C 1026.3 hPa Calm     84 % 0.0 mm 0.0 W/m2 CLR
19:46 8.8 °C 6.4 °C 1026.3 hPa Calm     85 % 0.0 mm 0.0 W/m2 CLR
19:51 8.6 °C 6.2 °C 1026.3 hPa Calm     85 % 0.0 mm 0.0 W/m2 CLR
19:56 8.3 °C 5.9 °C 1026.3 hPa Calm     85 % 0.0 mm 0.0 W/m2 CLR
20:01 8.1 °C 5.9 °C 1026.3 hPa Calm     86 % 0.0 mm 0.0 W/m2 CLR
20:06 8.0 °C 5.9 °C 1026.6 hPa Calm     87 % 0.0 mm 0.0 W/m2 CLR
20:11 7.8 °C 5.7 °C 1026.6 hPa Calm     87 % 0.0 mm 0.0 W/m2 CLR
20:16 7.6 °C 5.6 °C 1026.6 hPa Calm     87 % 0.0 mm 0.0 W/m2 CLR
20:21 7.5 °C 5.5 °C 1026.6 hPa Calm     87 % 0.0 mm 0.0 W/m2 CLR
20:26 7.3 °C 5.3 °C 1026.6 hPa Calm   0.2 km/h 87 % 0.0 mm 0.0 W/m2 CLR
20:31 7.2 °C 5.3 °C 1026.6 hPa Calm     88 % 0.0 mm 0.0 W/m2 CLR
20:36 7.0 °C 5.2 °C 1026.6 hPa Calm     88 % 0.0 mm 0.0 W/m2 CLR
20:41 6.9 °C 5.2 °C 1026.6 hPa Calm     89 % 0.0 mm 0.0 W/m2 CLR
20:46 6.7 °C 5.1 °C 1026.6 hPa Calm     89 % 0.0 mm 0.0 W/m2 CLR
20:51 6.6 °C 4.9 °C 1027.0 hPa Calm     89 % 0.0 mm 0.0 W/m2 CLR
20:56 6.5 °C 4.8 °C 1027.0 hPa Calm     89 % 0.0 mm 0.0 W/m2 CLR
21:01 6.4 °C 4.8 °C 1027.0 hPa Calm     89 % 0.0 mm 0.0 W/m2 CLR
21:06 6.3 °C 4.8 °C 1027.0 hPa Calm     90 % 0.0 mm 0.0 W/m2 CLR
21:11 6.2 °C 4.7 °C 1027.0 hPa Calm     90 % 0.0 mm 0.0 W/m2 CLR
21:16 6.1 °C 4.6 °C 1027.0 hPa Calm     90 % 0.0 mm 0.0 W/m2 CLR
21:21 5.9 °C 4.4 °C 1027.0 hPa Calm     90 % 0.0 mm 0.0 W/m2 CLR
21:26 5.8 °C 4.3 °C 1027.0 hPa Calm     90 % 0.0 mm 0.0 W/m2 CLR
21:31 5.7 °C 4.2 °C 1027.0 hPa Calm     90 % 0.0 mm 0.0 W/m2 CLR
21:36 5.6 °C 4.1 °C 1027.0 hPa Calm     90 % 0.0 mm 0.0 W/m2 CLR
21:41 5.5 °C 4.0 °C 1027.0 hPa Calm     90 % 0.0 mm 0.0 W/m2 CLR
21:46 5.5 °C 4.2 °C 1027.3 hPa Calm     91 % 0.0 mm 0.0 W/m2 CLR
21:51 5.5 °C 4.2 °C 1027.3 hPa Calm     91 % 0.0 mm 0.0 W/m2 CLR
21:56 5.4 °C 4.1 °C 1027.3 hPa Calm     91 % 0.0 mm 0.0 W/m2 CLR
22:01 5.3 °C 4.0 °C 1027.3 hPa Calm     91 % 0.0 mm 0.0 W/m2 CLR
22:06 5.3 °C 3.9 °C 1027.3 hPa Calm     91 % 0.0 mm 0.0 W/m2 CLR
22:11 5.2 °C 3.9 °C 1027.3 hPa Calm     91 % 0.0 mm 0.0 W/m2 CLR
22:16 5.1 °C 3.7 °C 1027.3 hPa Calm     91 % 0.0 mm 0.0 W/m2 CLR
22:21 4.9 °C 3.6 °C 1027.3 hPa Calm     91 % 0.0 mm 0.0 W/m2 CLR
22:26 4.7 °C 3.4 °C 1027.3 hPa Calm     91 % 0.0 mm 0.0 W/m2 CLR
22:31 4.8 °C 3.6 °C 1027.0 hPa Calm     92 % 0.0 mm 0.0 W/m2 CLR
22:36 4.8 °C 3.4 °C 1027.3 hPa Calm     91 % 0.0 mm 0.0 W/m2 CLR
22:41 4.6 °C 3.2 °C 1027.3 hPa Calm     91 % 0.0 mm 0.0 W/m2 CLR
22:46 4.4 °C 3.1 °C 1027.3 hPa Calm     91 % 0.0 mm 0.0 W/m2 CLR
22:51 4.3 °C 3.0 °C 1027.3 hPa Calm     91 % 0.0 mm 0.0 W/m2 CLR
22:56 4.3 °C 3.0 °C 1027.3 hPa Calm     91 % 0.0 mm 0.0 W/m2 CLR
23:01 4.2 °C 3.1 °C 1027.3 hPa Calm     92 % 0.0 mm 0.0 W/m2 CLR
23:06 4.2 °C 3.0 °C 1027.3 hPa Calm     92 % 0.0 mm 0.0 W/m2 CLR
23:11 4.1 °C 2.9 °C 1027.0 hPa Calm     92 % 0.0 mm 0.0 W/m2 CLR
23:16 4.1 °C 2.9 °C 1027.0 hPa Calm     92 % 0.0 mm 0.0 W/m2 CLR
23:21 4.1 °C 2.9 °C 1027.0 hPa Calm     92 % 0.0 mm 0.0 W/m2 CLR
23:26 4.0 °C 2.8 °C 1027.0 hPa Calm     92 % 0.0 mm 0.0 W/m2 CLR
23:31 3.9 °C 2.8 °C 1027.0 hPa Calm     92 % 0.0 mm 0.0 W/m2 CLR
23:36 3.8 °C 2.7 °C 1027.0 hPa Calm     92 % 0.0 mm 0.0 W/m2 CLR
23:41 3.7 °C 2.6 °C 1027.0 hPa Calm     92 % 0.0 mm 0.0 W/m2 CLR
23:47 3.7 °C 2.5 °C 1027.0 hPa Calm     92 % 0.0 mm 0.0 W/m2 CLR
23:52 3.6 °C 2.4 °C 1027.0 hPa Calm     92 % 0.0 mm 0.0 W/m2 CLR
23:57 3.5 °C 2.3 °C 1027.0 hPa Calm     92 % 0.0 mm 0.0 W/m2 CLR
Lo Temps de Massalio
Compliments of Weather Underground - 1.25 mb